createdAt,value
2023-01-13T00:01:23.019Z,59.73
2023-01-13T00:03:50.110Z,60.43
2023-01-13T00:06:19.146Z,59.55
2023-01-13T00:08:49.869Z,59.76
2023-01-13T00:11:17.154Z,59.78
2023-01-13T00:13:43.953Z,59.57
2023-01-13T00:16:13.022Z,59.32
2023-01-13T00:18:39.832Z,59.19
2023-01-13T00:21:17.940Z,59.55
2023-01-13T00:23:45.406Z,59.11
2023-01-13T00:26:18.300Z,59.46
2023-01-13T00:28:45.107Z,59.08
2023-01-13T00:31:17.699Z,59.63
2023-01-13T00:33:44.550Z,58.79
2023-01-13T00:36:14.018Z,58.41
2023-01-13T00:38:42.925Z,58.23
2023-01-13T00:41:14.590Z,58.56
2023-01-13T00:43:41.611Z,58.65
2023-01-13T00:46:10.135Z,58.91
2023-01-13T00:48:39.066Z,58.86
2023-01-13T00:51:18.064Z,58.43
2023-01-13T00:53:47.413Z,59.57
2023-01-13T00:56:24.410Z,58.91
2023-01-13T00:58:58.786Z,58.38
2023-01-13T01:01:26.185Z,59.38
2023-01-13T01:03:54.456Z,59.05
2023-01-13T01:06:26.028Z,58.91
2023-01-13T01:08:54.729Z,58.86
2023-01-13T01:11:26.976Z,58.86
2023-01-13T01:13:55.800Z,58.55
2023-01-13T01:16:25.564Z,59.26
2023-01-13T01:18:53.944Z,58.90
2023-01-13T01:21:22.165Z,58.28
2023-01-13T01:23:48.925Z,58.53
2023-01-13T01:26:18.847Z,58.82
2023-01-13T01:28:45.962Z,59.27
2023-01-13T01:31:16.586Z,59.55
2023-01-13T01:33:43.704Z,59.20
2023-01-13T01:36:12.560Z,59.44
2023-01-13T01:38:39.509Z,59.18
2023-01-13T01:41:06.741Z,58.76
2023-01-13T01:44:04.530Z,59.02
2023-01-13T01:46:36.041Z,58.89
2023-01-13T01:49:26.419Z,58.69
2023-01-13T01:51:59.183Z,58.51
2023-01-13T01:54:34.072Z,58.33
2023-01-13T01:57:01.369Z,58.16
2023-01-13T01:59:30.052Z,58.43
2023-01-13T02:01:56.848Z,58.97
2023-01-13T02:04:29.876Z,58.43
2023-01-13T02:06:57.412Z,59.73
2023-01-13T02:09:25.363Z,59.22
2023-01-13T02:12:10.572Z,59.20
2023-01-13T02:14:39.592Z,58.93
2023-01-13T02:17:30.801Z,59.10
2023-01-13T02:20:45.669Z,59.72
2023-01-13T02:23:46.419Z,59.36
2023-01-13T02:26:16.129Z,59.34
2023-01-13T02:29:25.293Z,59.17
2023-01-13T02:31:58.626Z,60.02
2023-01-13T02:34:36.319Z,59.71
2023-01-13T02:37:03.285Z,59.37
2023-01-13T02:39:51.805Z,59.63
2023-01-13T02:42:44.489Z,59.28
2023-01-13T02:45:26.947Z,59.37
2023-01-13T02:47:58.575Z,58.62
2023-01-13T02:50:32.708Z,58.87
2023-01-13T02:53:05.986Z,58.95
2023-01-13T02:55:39.182Z,58.94
2023-01-13T02:58:09.640Z,58.75
2023-01-13T03:00:37.109Z,58.73
2023-01-13T03:03:03.908Z,57.87
2023-01-13T03:05:32.865Z,57.99
2023-01-13T03:08:42.819Z,58.51
2023-01-13T03:11:13.242Z,58.32
2023-01-13T03:14:08.854Z,58.43
2023-01-13T03:17:11.991Z,58.18
2023-01-13T03:19:50.740Z,58.33
2023-01-13T03:22:20.263Z,57.96
2023-01-13T03:24:53.436Z,58.53
2023-01-13T03:27:33.605Z,59.02
2023-01-13T03:30:07.275Z,59.25
2023-01-13T03:32:41.033Z,59.49
2023-01-13T03:35:13.240Z,59.65
2023-01-13T03:37:46.389Z,59.67
2023-01-13T03:40:17.394Z,60.09
2023-01-13T03:43:08.461Z,59.92
2023-01-13T03:45:39.536Z,60.25
2023-01-13T03:48:12.952Z,60.29
2023-01-13T03:50:51.875Z,59.74
2023-01-13T03:53:24.342Z,60.67
2023-01-13T03:55:59.564Z,59.78
2023-01-13T03:58:35.345Z,60.25
2023-01-13T04:01:13.294Z,60.07
2023-01-13T04:03:56.737Z,60.37
2023-01-13T04:06:34.849Z,59.69
2023-01-13T04:09:26.079Z,60.54
2023-01-13T04:12:03.877Z,60.70
2023-01-13T04:14:30.877Z,61.04
2023-01-13T04:16:57.858Z,60.54
2023-01-13T04:19:25.061Z,60.74
2023-01-13T04:21:51.736Z,60.10
2023-01-13T04:24:18.373Z,60.06
2023-01-13T04:26:44.862Z,59.90
2023-01-13T04:29:11.967Z,59.58
2023-01-13T04:31:40.869Z,59.97
2023-01-13T04:34:10.073Z,60.26
2023-01-13T04:36:36.883Z,60.27
2023-01-13T04:39:04.104Z,60.12
2023-01-13T04:41:53.609Z,59.34
2023-01-13T04:44:20.355Z,60.17
2023-01-13T04:46:47.427Z,60.45
2023-01-13T04:49:14.208Z,60.26
2023-01-13T04:51:40.915Z,59.83
2023-01-13T04:54:07.466Z,60.29
2023-01-13T04:56:34.242Z,60.46
2023-01-13T04:59:01.003Z,60.20
2023-01-13T05:01:27.753Z,60.16
2023-01-13T05:03:54.666Z,60.14
2023-01-13T05:06:21.302Z,59.58
2023-01-13T05:08:47.872Z,59.79
2023-01-13T05:11:34.611Z,60.10
2023-01-13T05:14:19.737Z,60.42
2023-01-13T05:17:03.214Z,61.35
2023-01-13T05:19:33.438Z,60.78
2023-01-13T05:22:19.772Z,60.55
2023-01-13T05:25:05.199Z,60.84
2023-01-13T05:27:32.313Z,60.77
2023-01-13T05:29:59.083Z,60.98
2023-01-13T05:32:28.050Z,61.14
2023-01-13T05:34:56.072Z,61.10
2023-01-13T05:37:23.486Z,61.41
2023-01-13T05:40:08.818Z,61.50
2023-01-13T05:42:54.267Z,60.86
2023-01-13T05:45:21.276Z,60.64
2023-01-13T05:47:48.032Z,61.27
2023-01-13T05:50:15.282Z,60.79
2023-01-13T05:52:42.220Z,59.73
2023-01-13T05:55:09.538Z,60.23
2023-01-13T05:57:36.307Z,60.08
2023-01-13T06:00:03.366Z,58.75
2023-01-13T06:02:38.421Z,59.98
2023-01-13T06:05:05.379Z,59.95
2023-01-13T06:07:32.070Z,59.92
2023-01-13T06:09:58.610Z,60.07
2023-01-13T06:12:25.359Z,60.25
2023-01-13T06:14:51.861Z,60.22
2023-01-13T06:17:18.828Z,61.04
2023-01-13T06:19:45.554Z,60.81
2023-01-13T06:22:13.575Z,60.36
2023-01-13T06:24:40.344Z,61.10
2023-01-13T06:27:08.933Z,60.58
2023-01-13T06:29:35.883Z,58.90
2023-01-13T06:32:07.149Z,59.84
2023-01-13T06:34:38.026Z,59.60
2023-01-13T06:37:05.271Z,58.83
2023-01-13T06:39:33.944Z,59.08
2023-01-13T06:42:19.178Z,59.69
2023-01-13T06:44:46.078Z,59.51
2023-01-13T06:47:12.678Z,59.87
2023-01-13T06:49:39.320Z,59.71
2023-01-13T06:52:06.100Z,59.62
2023-01-13T06:54:32.914Z,59.93
2023-01-13T06:57:01.785Z,61.14
2023-01-13T06:59:28.629Z,60.07
2023-01-13T07:01:55.574Z,61.23
2023-01-13T07:04:22.519Z,60.97
2023-01-13T07:06:49.228Z,60.75
2023-01-13T07:09:15.794Z,60.51
2023-01-13T07:11:42.551Z,60.53
2023-01-13T07:14:31.001Z,59.94
2023-01-13T07:16:57.764Z,59.78
2023-01-13T07:19:24.473Z,59.78
2023-01-13T07:21:52.582Z,60.56
2023-01-13T07:24:20.179Z,60.41
2023-01-13T07:26:46.920Z,60.41
2023-01-13T07:29:13.978Z,61.14
2023-01-13T07:31:40.649Z,60.45
2023-01-13T07:34:07.836Z,59.31
2023-01-13T07:36:34.829Z,59.85
2023-01-13T07:39:01.694Z,60.56
2023-01-13T07:41:47.762Z,60.87
2023-01-13T07:44:14.700Z,60.09
2023-01-13T07:46:41.792Z,60.31
2023-01-13T07:49:09.278Z,60.31
2023-01-13T07:51:39.763Z,60.67
2023-01-13T07:54:06.558Z,59.64
2023-01-13T07:56:33.460Z,61.14
2023-01-13T07:59:00.909Z,60.69
2023-01-13T08:01:28.537Z,60.87
2023-01-13T08:03:56.379Z,61.14
2023-01-13T08:06:23.576Z,60.83
2023-01-13T08:08:53.065Z,61.61
2023-01-13T08:11:22.144Z,60.93
2023-01-13T08:13:50.256Z,62.77
2023-01-13T08:16:16.981Z,62.04
2023-01-13T08:18:43.802Z,63.00
2023-01-13T08:21:13.304Z,62.02
2023-01-13T08:23:41.442Z,61.89
2023-01-13T08:26:11.221Z,62.38
2023-01-13T08:28:40.524Z,62.69
2023-01-13T08:31:12.308Z,62.66
2023-01-13T08:33:39.445Z,61.99
2023-01-13T08:36:08.080Z,62.28
2023-01-13T08:38:36.563Z,62.46
2023-01-13T08:41:15.810Z,61.98
2023-01-13T08:43:42.599Z,62.37
2023-01-13T08:46:09.435Z,61.07
2023-01-13T08:48:36.655Z,60.94
2023-01-13T08:51:06.169Z,61.50
2023-01-13T08:53:33.076Z,62.13
2023-01-13T08:55:59.740Z,61.94
2023-01-13T08:58:26.732Z,62.40
2023-01-13T09:00:53.547Z,62.18
2023-01-13T09:03:20.221Z,62.47
2023-01-13T09:05:46.818Z,62.36
2023-01-13T09:08:13.643Z,61.79
2023-01-13T09:10:40.617Z,62.06
2023-01-13T09:13:11.961Z,62.56
2023-01-13T09:15:43.754Z,62.50
2023-01-13T09:18:11.126Z,61.77
2023-01-13T09:20:37.935Z,61.72
2023-01-13T09:23:05.649Z,61.80
2023-01-13T09:25:32.745Z,61.13
2023-01-13T09:27:59.348Z,60.57
2023-01-13T09:30:26.100Z,60.26
2023-01-13T09:33:12.769Z,59.79
2023-01-13T09:35:39.424Z,60.39
2023-01-13T09:38:06.966Z,60.45
2023-01-13T09:40:33.865Z,59.23
2023-01-13T09:43:33.304Z,60.12
2023-01-13T09:46:05.913Z,58.80
2023-01-13T09:48:51.756Z,59.82
2023-01-13T09:51:34.013Z,60.77
2023-01-13T09:54:16.595Z,59.83
2023-01-13T09:56:43.471Z,59.55
2023-01-13T09:59:12.363Z,59.53
2023-01-13T10:01:54.814Z,59.88
2023-01-13T10:04:21.779Z,59.51
2023-01-13T10:06:52.332Z,59.50
2023-01-13T10:09:23.953Z,59.26
2023-01-13T10:12:10.724Z,59.20
2023-01-13T10:15:13.321Z,58.85
2023-01-13T10:17:50.598Z,59.25
2023-01-13T10:20:22.717Z,59.19
2023-01-13T10:23:13.798Z,59.81
2023-01-13T10:25:49.192Z,59.40
2023-01-13T10:28:19.480Z,60.02
2023-01-13T10:30:47.840Z,60.31
2023-01-13T10:33:27.721Z,60.00
2023-01-13T10:36:00.837Z,59.96
2023-01-13T10:38:39.940Z,60.02
2023-01-13T10:41:15.947Z,60.14
2023-01-13T10:43:51.759Z,60.40
2023-01-13T10:46:20.283Z,59.90
2023-01-13T10:48:58.565Z,59.54
2023-01-13T10:51:37.255Z,58.84
2023-01-13T10:54:03.808Z,58.60
2023-01-13T10:56:33.574Z,58.89
2023-01-13T10:59:29.881Z,59.28
2023-01-13T11:02:25.443Z,58.30
2023-01-13T11:04:52.999Z,58.32
2023-01-13T11:07:36.719Z,58.45
2023-01-13T11:10:03.794Z,57.51
2023-01-13T11:12:32.847Z,58.30
2023-01-13T11:15:09.633Z,58.10
2023-01-13T11:17:45.462Z,59.04
2023-01-13T11:20:12.251Z,60.21
2023-01-13T11:22:51.390Z,61.97
2023-01-13T11:25:42.156Z,62.01
2023-01-13T11:28:37.813Z,61.92
2023-01-13T11:31:30.159Z,61.42
2023-01-13T11:34:11.439Z,61.26
2023-01-13T11:36:43.518Z,60.75
2023-01-13T11:39:30.097Z,60.22
2023-01-13T11:42:21.723Z,59.68
2023-01-13T11:45:19.422Z,59.07
2023-01-13T11:47:49.107Z,59.84
2023-01-13T11:50:36.989Z,59.67
2023-01-13T11:53:18.427Z,59.38
2023-01-13T11:55:57.318Z,59.50
2023-01-13T11:58:50.539Z,59.21
2023-01-13T12:01:47.103Z,58.94
2023-01-13T12:04:23.044Z,59.15
2023-01-13T12:07:07.392Z,58.96
2023-01-13T12:10:16.031Z,58.80
2023-01-13T12:13:24.198Z,58.19
2023-01-13T12:16:17.159Z,58.12
2023-01-13T12:19:18.582Z,58.09
2023-01-13T12:21:57.080Z,57.90
2023-01-13T12:24:30.130Z,58.24
2023-01-13T12:27:19.100Z,57.59
2023-01-13T12:29:49.326Z,57.30
2023-01-13T12:32:21.148Z,57.58
2023-01-13T12:35:16.780Z,57.84
2023-01-13T12:38:08.198Z,57.61
2023-01-13T12:40:56.372Z,57.51
2023-01-13T12:43:43.187Z,57.10
2023-01-13T12:46:19.147Z,56.64
2023-01-13T12:48:45.949Z,55.74
2023-01-13T12:51:33.514Z,56.66
2023-01-13T12:54:02.184Z,56.71
2023-01-13T12:56:45.294Z,56.87
2023-01-13T12:59:21.427Z,58.03
2023-01-13T13:02:12.902Z,60.17
2023-01-13T13:04:49.889Z,60.46
2023-01-13T13:07:31.815Z,61.91
2023-01-13T13:10:05.978Z,63.48
2023-01-13T13:13:00.314Z,65.23
2023-01-13T13:15:29.520Z,65.75
2023-01-13T13:17:59.451Z,65.98
2023-01-13T13:20:53.762Z,66.54
2023-01-13T13:23:58.780Z,68.19
2023-01-13T13:26:45.742Z,69.42
2023-01-13T13:29:27.665Z,69.64
2023-01-13T13:32:07.563Z,68.38
2023-01-13T13:34:55.469Z,69.77
2023-01-13T13:37:54.342Z,69.55
2023-01-13T13:40:39.658Z,68.89
2023-01-13T13:43:32.054Z,67.28
2023-01-13T13:46:17.543Z,67.26
2023-01-13T13:48:55.505Z,68.43
2023-01-13T13:51:22.642Z,67.89
2023-01-13T13:53:49.285Z,67.40
2023-01-13T13:56:20.802Z,66.57
2023-01-13T13:58:49.010Z,65.48
2023-01-13T14:01:30.073Z,65.78
2023-01-13T14:04:25.998Z,66.23
2023-01-13T14:06:58.724Z,65.08
2023-01-13T14:09:28.728Z,65.94
2023-01-13T14:12:01.089Z,65.51
2023-01-13T14:14:29.037Z,66.72
2023-01-13T14:16:56.318Z,67.20
2023-01-13T14:19:35.637Z,66.69
2023-01-13T14:22:04.671Z,66.62
2023-01-13T14:24:32.320Z,66.85
2023-01-13T14:27:15.900Z,67.61
2023-01-13T14:29:42.971Z,67.93
2023-01-13T14:32:15.408Z,68.08
2023-01-13T14:34:42.207Z,66.91
2023-01-13T14:37:31.532Z,67.35
2023-01-13T14:39:58.308Z,67.54
2023-01-13T14:42:27.670Z,67.68
2023-01-13T14:44:56.341Z,67.13
2023-01-13T14:47:26.706Z,67.50
2023-01-13T14:50:28.180Z,66.86
2023-01-13T14:52:57.042Z,67.78
2023-01-13T14:55:38.668Z,66.74
2023-01-13T14:58:21.965Z,68.19
2023-01-13T15:00:49.980Z,67.63
2023-01-13T15:03:18.914Z,66.48
2023-01-13T15:05:51.807Z,66.09
2023-01-13T15:08:44.689Z,66.02
2023-01-13T15:11:24.822Z,65.92
2023-01-13T15:14:03.781Z,66.38
2023-01-13T15:16:34.620Z,65.96
2023-01-13T15:19:01.685Z,66.62
2023-01-13T15:21:28.496Z,66.55
2023-01-13T15:23:55.388Z,65.74
2023-01-13T15:26:29.804Z,67.39
2023-01-13T15:29:00.723Z,67.16
2023-01-13T15:31:28.301Z,66.35
2023-01-13T15:33:55.108Z,66.27
2023-01-13T15:36:31.013Z,66.58
2023-01-13T15:38:59.619Z,66.71
2023-01-13T15:41:45.948Z,66.42
2023-01-13T15:44:32.835Z,66.55
2023-01-13T15:47:02.796Z,66.50
2023-01-13T15:49:35.151Z,65.81
2023-01-13T15:52:19.350Z,66.77
2023-01-13T15:54:48.363Z,66.25
2023-01-13T15:57:30.124Z,65.69
2023-01-13T16:00:00.279Z,65.36
2023-01-13T16:02:27.558Z,66.25
2023-01-13T16:04:54.827Z,66.10
2023-01-13T16:07:23.712Z,66.01
2023-01-13T16:09:52.359Z,66.53
2023-01-13T16:12:21.056Z,66.08
2023-01-13T16:14:47.767Z,65.89
2023-01-13T16:17:20.298Z,66.13
2023-01-13T16:19:47.475Z,66.28
2023-01-13T16:22:16.152Z,66.79
2023-01-13T16:24:43.154Z,66.51
2023-01-13T16:27:23.056Z,66.28
2023-01-13T16:29:50.968Z,66.79
2023-01-13T16:32:18.264Z,66.22
2023-01-13T16:34:45.092Z,66.65
2023-01-13T16:37:19.475Z,66.03
2023-01-13T16:39:46.292Z,66.21
2023-01-13T16:42:13.039Z,66.28
2023-01-13T16:44:42.431Z,66.48
2023-01-13T16:47:16.665Z,66.81
2023-01-13T16:49:43.559Z,66.81
2023-01-13T16:52:10.283Z,66.80
2023-01-13T16:54:36.974Z,67.03
2023-01-13T16:57:03.781Z,67.09
2023-01-13T16:59:30.475Z,66.26
2023-01-13T17:01:57.519Z,66.07
2023-01-13T17:04:24.500Z,65.81
2023-01-13T17:06:58.381Z,66.15
2023-01-13T17:09:27.882Z,65.85
2023-01-13T17:11:55.893Z,65.46
2023-01-13T17:14:24.914Z,65.90
2023-01-13T17:17:00.146Z,65.70
2023-01-13T17:19:27.141Z,66.13
2023-01-13T17:21:53.954Z,65.93
2023-01-13T17:24:21.055Z,66.35
2023-01-13T17:26:50.373Z,66.83
2023-01-13T17:29:22.263Z,67.27
2023-01-13T17:31:50.580Z,66.99
2023-01-13T17:34:17.774Z,67.07
2023-01-13T17:36:44.483Z,67.09
2023-01-13T17:39:21.820Z,67.55
2023-01-13T17:41:48.601Z,66.84
2023-01-13T17:44:20.786Z,66.60
2023-01-13T17:46:47.687Z,66.45
2023-01-13T17:49:19.589Z,66.24
2023-01-13T17:51:48.314Z,66.52
2023-01-13T17:54:16.081Z,66.38
2023-01-13T17:56:43.541Z,66.76
2023-01-13T17:59:15.240Z,67.02
2023-01-13T18:01:42.409Z,66.92
2023-01-13T18:04:21.797Z,66.75
2023-01-13T18:06:48.976Z,66.55
2023-01-13T18:09:16.776Z,66.73
2023-01-13T18:11:44.494Z,67.56
2023-01-13T18:14:12.328Z,67.93
2023-01-13T18:16:39.138Z,67.38
2023-01-13T18:19:24.936Z,67.18
2023-01-13T18:22:10.679Z,67.58
2023-01-13T18:24:56.192Z,67.08
2023-01-13T18:27:33.361Z,66.78
2023-01-13T18:30:02.756Z,66.61
2023-01-13T18:32:33.546Z,66.77
2023-01-13T18:35:07.290Z,66.80
2023-01-13T18:37:38.826Z,66.12
2023-01-13T18:40:06.777Z,66.98
2023-01-13T18:42:54.321Z,67.39
2023-01-13T18:45:29.660Z,66.49
2023-01-13T18:47:59.337Z,67.09
2023-01-13T18:50:26.326Z,65.93
2023-01-13T18:52:53.004Z,64.93
2023-01-13T18:55:20.721Z,64.84
2023-01-13T18:57:48.202Z,66.53
2023-01-13T19:00:21.339Z,66.29
2023-01-13T19:05:34.285Z,65.82
2023-01-13T19:08:01.007Z,66.64
2023-01-13T19:10:31.840Z,66.71
2023-01-13T19:12:58.722Z,66.70
2023-01-13T19:15:25.474Z,66.27
2023-01-13T19:17:52.020Z,67.05
2023-01-13T19:20:20.038Z,66.12
2023-01-13T19:22:53.758Z,66.11
2023-01-13T19:25:20.902Z,65.95
2023-01-13T19:27:47.527Z,66.45
2023-01-13T19:30:14.575Z,65.61
2023-01-13T19:32:41.455Z,65.20
2023-01-13T19:35:08.825Z,65.40
2023-01-13T19:37:37.148Z,65.18
2023-01-13T19:40:09.350Z,65.61
2023-01-13T19:42:54.946Z,64.62
2023-01-13T19:45:28.290Z,65.65
2023-01-13T19:47:57.132Z,65.45
2023-01-13T19:50:25.027Z,65.45
2023-01-13T19:52:55.371Z,66.17
2023-01-13T19:55:22.681Z,66.00
2023-01-13T19:57:49.525Z,66.79
2023-01-13T20:00:20.998Z,67.15
2023-01-13T20:02:49.263Z,67.06
2023-01-13T20:05:21.313Z,67.28
2023-01-13T20:07:50.057Z,67.25
2023-01-13T20:10:21.332Z,66.68
2023-01-13T20:12:48.435Z,66.82
2023-01-13T20:15:15.143Z,66.92
2023-01-13T20:17:45.624Z,66.52
2023-01-13T20:20:12.497Z,67.90
2023-01-13T20:22:40.110Z,66.69
2023-01-13T20:25:07.979Z,65.44
2023-01-13T20:27:35.003Z,65.43
2023-01-13T20:30:01.695Z,65.65
2023-01-13T20:32:29.075Z,65.59
2023-01-13T20:34:55.788Z,65.47
2023-01-13T20:37:23.434Z,65.94
2023-01-13T20:39:50.089Z,66.08
2023-01-13T20:42:29.179Z,65.76
2023-01-13T20:44:57.128Z,65.96
2023-01-13T20:47:24.059Z,66.09
2023-01-13T20:49:50.918Z,66.76
2023-01-13T20:52:17.665Z,66.59
2023-01-13T20:54:44.231Z,67.15
2023-01-13T20:57:11.936Z,67.25
2023-01-13T20:59:39.621Z,67.35
2023-01-13T21:02:11.736Z,66.04
2023-01-13T21:04:38.448Z,66.84
2023-01-13T21:07:05.339Z,65.77
2023-01-13T21:09:32.369Z,65.54
2023-01-13T21:12:17.683Z,66.19
2023-01-13T21:15:03.046Z,65.51
2023-01-13T21:17:48.356Z,65.66
2023-01-13T21:20:15.560Z,65.43
2023-01-13T21:22:47.029Z,65.59
2023-01-13T21:25:14.964Z,65.80
2023-01-13T21:27:44.418Z,65.57
2023-01-13T21:30:18.135Z,65.31
2023-01-13T21:32:46.251Z,65.57
2023-01-13T21:35:14.107Z,64.78
2023-01-13T21:37:42.315Z,65.14
2023-01-13T21:40:12.849Z,64.79
2023-01-13T21:42:58.156Z,64.81
2023-01-13T21:45:43.507Z,64.72
2023-01-13T21:48:10.258Z,64.05
2023-01-13T21:50:38.237Z,64.58
2023-01-13T21:53:05.261Z,64.18
2023-01-13T21:55:32.868Z,63.78
2023-01-13T21:58:14.188Z,64.31
2023-01-13T22:00:44.784Z,64.33
2023-01-13T22:03:14.321Z,64.01
2023-01-13T22:05:41.037Z,63.42
2023-01-13T22:08:07.626Z,63.69
2023-01-13T22:10:34.567Z,63.86
2023-01-13T22:13:22.554Z,63.91
2023-01-13T22:15:49.264Z,63.42
2023-01-13T22:18:18.148Z,63.05
2023-01-13T22:20:45.363Z,63.83
2023-01-13T22:23:12.181Z,63.68
2023-01-13T22:25:38.864Z,64.04
2023-01-13T22:28:06.139Z,63.96
2023-01-13T22:30:33.270Z,63.57
2023-01-13T22:33:00.741Z,64.24
2023-01-13T22:35:27.505Z,63.50
2023-01-13T22:37:54.163Z,63.86
2023-01-13T22:40:20.960Z,63.95
2023-01-13T22:42:47.656Z,63.42
2023-01-13T22:45:14.538Z,64.39
2023-01-13T22:47:41.412Z,63.73
2023-01-13T22:50:08.594Z,63.34
2023-01-13T22:52:35.783Z,63.89
2023-01-13T22:55:03.158Z,63.85
2023-01-13T22:57:36.088Z,64.11
2023-01-13T23:00:06.323Z,63.97
2023-01-13T23:02:34.681Z,63.39
2023-01-13T23:05:02.978Z,63.63
2023-01-13T23:07:29.679Z,64.46
2023-01-13T23:09:56.283Z,63.71
2023-01-13T23:12:23.167Z,63.63
2023-01-13T23:14:49.787Z,63.28
2023-01-13T23:17:16.973Z,63.48
2023-01-13T23:19:43.791Z,63.94
2023-01-13T23:22:10.292Z,63.21
2023-01-13T23:24:37.175Z,63.36
2023-01-13T23:27:03.910Z,63.51
2023-01-13T23:29:30.532Z,64.10
2023-01-13T23:31:57.201Z,64.24
2023-01-13T23:34:23.746Z,63.85
2023-01-13T23:36:50.564Z,64.48
2023-01-13T23:39:17.246Z,64.06
2023-01-13T23:41:43.786Z,64.99
2023-01-13T23:44:10.441Z,65.39
2023-01-13T23:46:37.129Z,65.00
2023-01-13T23:49:03.832Z,64.72
2023-01-13T23:51:31.344Z,65.74
2023-01-13T23:53:59.340Z,65.76
2023-01-13T23:56:31.169Z,64.93
2023-01-13T23:58:58.769Z,65.91
